sensor_id;sensor_type;location;lat;lon;timestamp;P1;durP1;ratioP1;P2;durP2;ratioP2
55134;SDS011;41031;44.750;11.308;2022-09-27T00:00:31;5.23;;;1.90;;
55134;SDS011;41031;44.750;11.308;2022-09-27T00:02:58;3.43;;;1.63;;
55134;SDS011;41031;44.750;11.308;2022-09-27T00:05:25;4.67;;;1.33;;
55134;SDS011;41031;44.750;11.308;2022-09-27T00:07:52;1.50;;;1.00;;
55134;SDS011;41031;44.750;11.308;2022-09-27T00:10:19;2.63;;;1.27;;
55134;SDS011;41031;44.750;11.308;2022-09-27T00:12:46;3.47;;;1.43;;
55134;SDS011;41031;44.750;11.308;2022-09-27T00:15:13;8.13;;;1.50;;
55134;SDS011;41031;44.750;11.308;2022-09-27T00:17:41;2.73;;;1.50;;
55134;SDS011;41031;44.750;11.308;2022-09-27T00:20:08;1.47;;;1.37;;
55134;SDS011;41031;44.750;11.308;2022-09-27T00:22:36;4.07;;;1.80;;
55134;SDS011;41031;44.750;11.308;2022-09-27T00:25:03;5.40;;;1.80;;
55134;SDS011;41031;44.750;11.308;2022-09-27T00:27:32;3.80;;;1.50;;
55134;SDS011;41031;44.750;11.308;2022-09-27T00:29:59;8.23;;;1.70;;
55134;SDS011;41031;44.750;11.308;2022-09-27T00:32:26;1.67;;;1.30;;
55134;SDS011;41031;44.750;11.308;2022-09-27T00:34:53;4.00;;;1.57;;
55134;SDS011;41031;44.750;11.308;2022-09-27T00:37:21;2.80;;;1.07;;
55134;SDS011;41031;44.750;11.308;2022-09-27T00:39:48;5.70;;;1.43;;
55134;SDS011;41031;44.750;11.308;2022-09-27T00:42:15;1.10;;;1.00;;
55134;SDS011;41031;44.750;11.308;2022-09-27T00:52:44;4.03;;;1.40;;
55134;SDS011;41031;44.750;11.308;2022-09-27T00:55:31;1.77;;;1.50;;
55134;SDS011;41031;44.750;11.308;2022-09-27T00:58:01;8.90;;;1.50;;
55134;SDS011;41031;44.750;11.308;2022-09-27T01:00:30;3.83;;;1.30;;
55134;SDS011;41031;44.750;11.308;2022-09-27T01:02:58;3.80;;;1.80;;
55134;SDS011;41031;44.750;11.308;2022-09-27T01:05:26;2.77;;;1.53;;
55134;SDS011;41031;44.750;11.308;2022-09-27T01:07:54;3.03;;;1.30;;
55134;SDS011;41031;44.750;11.308;2022-09-27T01:10:22;2.00;;;1.30;;
55134;SDS011;41031;44.750;11.308;2022-09-27T01:15:54;2.63;;;1.70;;
55134;SDS011;41031;44.750;11.308;2022-09-27T01:18:29;2.13;;;1.50;;
55134;SDS011;41031;44.750;11.308;2022-09-27T01:32:36;4.13;;;1.90;;
55134;SDS011;41031;44.750;11.308;2022-09-27T01:35:49;3.93;;;1.93;;
55134;SDS011;41031;44.750;11.308;2022-09-27T01:38:33;11.33;;;1.63;;
55134;SDS011;41031;44.750;11.308;2022-09-27T01:44:13;2.70;;;1.87;;
55134;SDS011;41031;44.750;11.308;2022-09-27T01:47:04;4.10;;;2.00;;
55134;SDS011;41031;44.750;11.308;2022-09-27T01:49:51;3.53;;;1.80;;
55134;SDS011;41031;44.750;11.308;2022-09-27T01:52:42;3.90;;;1.80;;
55134;SDS011;41031;44.750;11.308;2022-09-27T01:55:49;4.57;;;1.93;;
55134;SDS011;41031;44.750;11.308;2022-09-27T02:01:46;1.70;;;1.60;;
55134;SDS011;41031;44.750;11.308;2022-09-27T02:04:27;2.30;;;1.67;;
55134;SDS011;41031;44.750;11.308;2022-09-27T02:07:15;2.97;;;1.90;;
55134;SDS011;41031;44.750;11.308;2022-09-27T02:09:51;5.00;;;2.23;;
55134;SDS011;41031;44.750;11.308;2022-09-27T02:12:32;4.27;;;1.80;;
55134;SDS011;41031;44.750;11.308;2022-09-27T02:15:10;2.07;;;1.60;;
55134;SDS011;41031;44.750;11.308;2022-09-27T02:17:43;2.57;;;1.73;;
55134;SDS011;41031;44.750;11.308;2022-09-27T02:20:28;2.50;;;2.00;;
55134;SDS011;41031;44.750;11.308;2022-09-27T02:28:21;2.97;;;1.90;;
55134;SDS011;41031;44.750;11.308;2022-09-27T02:30:56;2.03;;;1.73;;
55134;SDS011;41031;44.750;11.308;2022-09-27T02:33:30;5.47;;;1.90;;
55134;SDS011;41031;44.750;11.308;2022-09-27T02:36:05;3.03;;;2.00;;
55134;SDS011;41031;44.750;11.308;2022-09-27T02:38:32;2.70;;;2.00;;
55134;SDS011;41031;44.750;11.308;2022-09-27T02:41:01;2.57;;;1.90;;
55134;SDS011;41031;44.750;11.308;2022-09-27T02:43:29;4.43;;;2.17;;
55134;SDS011;41031;44.750;11.308;2022-09-27T02:48:59;2.33;;;1.60;;
55134;SDS011;41031;44.750;11.308;2022-09-27T03:00:13;4.47;;;2.20;;
55134;SDS011;41031;44.750;11.308;2022-09-27T03:03:08;3.07;;;2.00;;
55134;SDS011;41031;44.750;11.308;2022-09-27T03:06:00;2.83;;;1.80;;
55134;SDS011;41031;44.750;11.308;2022-09-27T03:08:28;3.80;;;2.00;;
55134;SDS011;41031;44.750;11.308;2022-09-27T03:10:55;2.90;;;2.50;;
55134;SDS011;41031;44.750;11.308;2022-09-27T03:13:22;4.50;;;2.70;;
55134;SDS011;41031;44.750;11.308;2022-09-27T03:15:49;4.03;;;2.60;;
55134;SDS011;41031;44.750;11.308;2022-09-27T03:18:16;2.60;;;2.40;;
55134;SDS011;41031;44.750;11.308;2022-09-27T03:20:52;4.47;;;2.53;;
55134;SDS011;41031;44.750;11.308;2022-09-27T03:23:23;3.10;;;2.80;;
55134;SDS011;41031;44.750;11.308;2022-09-27T03:25:50;3.80;;;2.63;;
55134;SDS011;41031;44.750;11.308;2022-09-27T03:28:17;5.60;;;2.97;;
55134;SDS011;41031;44.750;11.308;2022-09-27T03:30:46;6.33;;;3.93;;
55134;SDS011;41031;44.750;11.308;2022-09-27T03:33:33;3.87;;;3.33;;
55134;SDS011;41031;44.750;11.308;2022-09-27T03:36:06;5.03;;;4.03;;
55134;SDS011;41031;44.750;11.308;2022-09-27T03:38:33;7.27;;;4.00;;
55134;SDS011;41031;44.750;11.308;2022-09-27T03:41:00;6.97;;;4.37;;
55134;SDS011;41031;44.750;11.308;2022-09-27T03:43:28;4.43;;;3.67;;
55134;SDS011;41031;44.750;11.308;2022-09-27T03:45:59;9.83;;;4.67;;
55134;SDS011;41031;44.750;11.308;2022-09-27T03:48:27;8.20;;;4.83;;
55134;SDS011;41031;44.750;11.308;2022-09-27T03:50:56;7.47;;;4.90;;
55134;SDS011;41031;44.750;11.308;2022-09-27T03:53:23;7.93;;;4.27;;
55134;SDS011;41031;44.750;11.308;2022-09-27T03:55:51;9.00;;;5.27;;
55134;SDS011;41031;44.750;11.308;2022-09-27T03:58:18;6.83;;;4.77;;
55134;SDS011;41031;44.750;11.308;2022-09-27T04:00:45;6.10;;;4.77;;
55134;SDS011;41031;44.750;11.308;2022-09-27T04:03:12;9.00;;;5.07;;
55134;SDS011;41031;44.750;11.308;2022-09-27T04:06:02;8.13;;;2.97;;
55134;SDS011;41031;44.750;11.308;2022-09-27T04:08:36;4.83;;;2.53;;
55134;SDS011;41031;44.750;11.308;2022-09-27T04:11:04;5.60;;;4.57;;
55134;SDS011;41031;44.750;11.308;2022-09-27T04:13:33;6.83;;;5.10;;
55134;SDS011;41031;44.750;11.308;2022-09-27T04:16:00;12.77;;;7.97;;
55134;SDS011;41031;44.750;11.308;2022-09-27T04:18:47;13.87;;;8.23;;
55134;SDS011;41031;44.750;11.308;2022-09-27T04:21:52;9.67;;;7.17;;
55134;SDS011;41031;44.750;11.308;2022-09-27T04:24:19;12.70;;;8.27;;
55134;SDS011;41031;44.750;11.308;2022-09-27T04:27:03;11.80;;;7.63;;
55134;SDS011;41031;44.750;11.308;2022-09-27T04:29:31;11.43;;;7.87;;
55134;SDS011;41031;44.750;11.308;2022-09-27T04:32:12;13.37;;;8.93;;
55134;SDS011;41031;44.750;11.308;2022-09-27T04:34:58;11.20;;;8.40;;
55134;SDS011;41031;44.750;11.308;2022-09-27T04:37:44;14.50;;;8.90;;
55134;SDS011;41031;44.750;11.308;2022-09-27T04:40:11;12.77;;;8.33;;
55134;SDS011;41031;44.750;11.308;2022-09-27T04:42:39;13.03;;;9.10;;
55134;SDS011;41031;44.750;11.308;2022-09-27T04:45:06;15.07;;;9.67;;
55134;SDS011;41031;44.750;11.308;2022-09-27T04:47:33;13.73;;;8.63;;
55134;SDS011;41031;44.750;11.308;2022-09-27T04:50:01;11.30;;;8.30;;
55134;SDS011;41031;44.750;11.308;2022-09-27T04:52:28;11.87;;;8.90;;
55134;SDS011;41031;44.750;11.308;2022-09-27T04:54:57;12.83;;;8.07;;
55134;SDS011;41031;44.750;11.308;2022-09-27T04:57:24;12.77;;;8.87;;
55134;SDS011;41031;44.750;11.308;2022-09-27T04:59:51;11.83;;;8.67;;
55134;SDS011;41031;44.750;11.308;2022-09-27T05:02:18;14.10;;;8.73;;
55134;SDS011;41031;44.750;11.308;2022-09-27T05:05:04;15.33;;;9.10;;
55134;SDS011;41031;44.750;11.308;2022-09-27T05:07:36;12.80;;;7.87;;
55134;SDS011;41031;44.750;11.308;2022-09-27T05:10:09;10.50;;;8.23;;
55134;SDS011;41031;44.750;11.308;2022-09-27T05:12:36;12.10;;;7.60;;
55134;SDS011;41031;44.750;11.308;2022-09-27T05:15:04;12.97;;;7.60;;
55134;SDS011;41031;44.750;11.308;2022-09-27T05:17:50;9.33;;;7.50;;
55134;SDS011;41031;44.750;11.308;2022-09-27T05:20:24;12.37;;;7.53;;
55134;SDS011;41031;44.750;11.308;2022-09-27T05:23:02;10.53;;;8.40;;
55134;SDS011;41031;44.750;11.308;2022-09-27T05:25:33;12.37;;;7.43;;
55134;SDS011;41031;44.750;11.308;2022-09-27T05:28:00;11.80;;;7.90;;
55134;SDS011;41031;44.750;11.308;2022-09-27T05:30:28;14.73;;;8.33;;
55134;SDS011;41031;44.750;11.308;2022-09-27T05:33:06;11.80;;;8.07;;
55134;SDS011;41031;44.750;11.308;2022-09-27T05:35:52;12.53;;;7.23;;
55134;SDS011;41031;44.750;11.308;2022-09-27T05:38:22;12.97;;;8.07;;
55134;SDS011;41031;44.750;11.308;2022-09-27T05:40:54;11.73;;;7.73;;
55134;SDS011;41031;44.750;11.308;2022-09-27T05:43:23;8.97;;;7.23;;
55134;SDS011;41031;44.750;11.308;2022-09-27T05:45:51;11.50;;;7.63;;
55134;SDS011;41031;44.750;11.308;2022-09-27T05:48:19;14.00;;;7.33;;
55134;SDS011;41031;44.750;11.308;2022-09-27T05:50:54;12.03;;;8.13;;
55134;SDS011;41031;44.750;11.308;2022-09-27T05:53:21;11.30;;;7.63;;
55134;SDS011;41031;44.750;11.308;2022-09-27T05:55:49;14.83;;;8.30;;
55134;SDS011;41031;44.750;11.308;2022-09-27T05:58:20;13.87;;;8.27;;
55134;SDS011;41031;44.750;11.308;2022-09-27T06:00:53;13.03;;;10.20;;
55134;SDS011;41031;44.750;11.308;2022-09-27T06:03:50;16.37;;;11.57;;
55134;SDS011;41031;44.750;11.308;2022-09-27T06:06:36;16.27;;;12.23;;
55134;SDS011;41031;44.750;11.308;2022-09-27T06:09:08;17.90;;;13.40;;
55134;SDS011;41031;44.750;11.308;2022-09-27T06:11:37;14.47;;;11.83;;
55134;SDS011;41031;44.750;11.308;2022-09-27T06:14:13;17.10;;;12.33;;
55134;SDS011;41031;44.750;11.308;2022-09-27T06:16:56;18.27;;;14.70;;
55134;SDS011;41031;44.750;11.308;2022-09-27T06:19:26;25.03;;;15.40;;
55134;SDS011;41031;44.750;11.308;2022-09-27T06:21:54;23.63;;;16.17;;
55134;SDS011;41031;44.750;11.308;2022-09-27T06:24:26;24.40;;;16.00;;
55134;SDS011;41031;44.750;11.308;2022-09-27T06:26:53;23.27;;;17.73;;
55134;SDS011;41031;44.750;11.308;2022-09-27T06:29:43;21.87;;;16.33;;
55134;SDS011;41031;44.750;11.308;2022-09-27T06:32:20;21.73;;;16.23;;
55134;SDS011;41031;44.750;11.308;2022-09-27T06:34:54;26.97;;;18.17;;
55134;SDS011;41031;44.750;11.308;2022-09-27T06:37:25;26.50;;;18.27;;
55134;SDS011;41031;44.750;11.308;2022-09-27T06:39:52;29.50;;;19.73;;
55134;SDS011;41031;44.750;11.308;2022-09-27T06:42:41;28.57;;;20.03;;
55134;SDS011;41031;44.750;11.308;2022-09-27T06:45:28;30.83;;;22.70;;
55134;SDS011;41031;44.750;11.308;2022-09-27T06:48:20;29.10;;;21.70;;
55134;SDS011;41031;44.750;11.308;2022-09-27T06:51:03;33.90;;;23.23;;
55134;SDS011;41031;44.750;11.308;2022-09-27T06:53:31;34.40;;;23.27;;
55134;SDS011;41031;44.750;11.308;2022-09-27T06:55:58;31.63;;;23.93;;
55134;SDS011;41031;44.750;11.308;2022-09-27T06:58:33;28.67;;;24.00;;
55134;SDS011;41031;44.750;11.308;2022-09-27T07:01:37;30.37;;;23.47;;
55134;SDS011;41031;44.750;11.308;2022-09-27T07:04:23;51.03;;;39.23;;
55134;SDS011;41031;44.750;11.308;2022-09-27T07:07:02;32.30;;;24.57;;
55134;SDS011;41031;44.750;11.308;2022-09-27T07:09:33;33.67;;;26.57;;
55134;SDS011;41031;44.750;11.308;2022-09-27T07:12:00;32.63;;;26.10;;
55134;SDS011;41031;44.750;11.308;2022-09-27T07:14:29;34.30;;;26.27;;
55134;SDS011;41031;44.750;11.308;2022-09-27T07:16:56;40.27;;;26.47;;
55134;SDS011;41031;44.750;11.308;2022-09-27T07:19:24;37.43;;;27.10;;
55134;SDS011;41031;44.750;11.308;2022-09-27T07:21:52;36.17;;;26.20;;
55134;SDS011;41031;44.750;11.308;2022-09-27T07:24:19;34.00;;;24.47;;
55134;SDS011;41031;44.750;11.308;2022-09-27T07:26:47;35.20;;;25.53;;
55134;SDS011;41031;44.750;11.308;2022-09-27T07:29:17;34.27;;;26.57;;
55134;SDS011;41031;44.750;11.308;2022-09-27T07:31:45;31.50;;;24.43;;
55134;SDS011;41031;44.750;11.308;2022-09-27T07:34:12;31.87;;;24.80;;
55134;SDS011;41031;44.750;11.308;2022-09-27T07:36:41;30.33;;;23.00;;
55134;SDS011;41031;44.750;11.308;2022-09-27T07:39:08;28.67;;;23.30;;
55134;SDS011;41031;44.750;11.308;2022-09-27T07:41:35;32.50;;;24.70;;
55134;SDS011;41031;44.750;11.308;2022-09-27T07:44:04;25.33;;;22.17;;
55134;SDS011;41031;44.750;11.308;2022-09-27T07:46:39;22.53;;;17.73;;
55134;SDS011;41031;44.750;11.308;2022-09-27T07:49:16;18.70;;;16.07;;
55134;SDS011;41031;44.750;11.308;2022-09-27T07:52:01;24.87;;;18.50;;
55134;SDS011;41031;44.750;11.308;2022-09-27T07:54:34;24.23;;;18.17;;
55134;SDS011;41031;44.750;11.308;2022-09-27T07:57:25;22.57;;;17.97;;
55134;SDS011;41031;44.750;11.308;2022-09-27T07:59:55;19.43;;;16.20;;
55134;SDS011;41031;44.750;11.308;2022-09-27T08:02:22;18.07;;;15.00;;
55134;SDS011;41031;44.750;11.308;2022-09-27T08:04:50;17.47;;;15.23;;
55134;SDS011;41031;44.750;11.308;2022-09-27T08:07:18;19.97;;;14.27;;
55134;SDS011;41031;44.750;11.308;2022-09-27T08:09:50;17.77;;;14.17;;
55134;SDS011;41031;44.750;11.308;2022-09-27T08:12:17;17.43;;;13.30;;
55134;SDS011;41031;44.750;11.308;2022-09-27T08:14:47;16.40;;;13.13;;
55134;SDS011;41031;44.750;11.308;2022-09-27T08:17:15;20.77;;;15.17;;
55134;SDS011;41031;44.750;11.308;2022-09-27T08:20:02;19.03;;;13.57;;
55134;SDS011;41031;44.750;11.308;2022-09-27T08:23:00;17.90;;;12.40;;
55134;SDS011;41031;44.750;11.308;2022-09-27T08:25:40;15.53;;;12.67;;
55134;SDS011;41031;44.750;11.308;2022-09-27T08:28:32;15.73;;;12.37;;
55134;SDS011;41031;44.750;11.308;2022-09-27T08:31:04;17.83;;;12.03;;
55134;SDS011;41031;44.750;11.308;2022-09-27T08:33:31;15.70;;;12.23;;
55134;SDS011;41031;44.750;11.308;2022-09-27T08:36:09;17.87;;;13.03;;
55134;SDS011;41031;44.750;11.308;2022-09-27T08:38:37;19.07;;;12.80;;
55134;SDS011;41031;44.750;11.308;2022-09-27T08:43:40;16.13;;;10.97;;
55134;SDS011;41031;44.750;11.308;2022-09-27T08:48:58;11.90;;;8.90;;
55134;SDS011;41031;44.750;11.308;2022-09-27T08:51:36;8.83;;;6.90;;
55134;SDS011;41031;44.750;11.308;2022-09-27T08:54:19;8.17;;;7.23;;
55134;SDS011;41031;44.750;11.308;2022-09-27T08:56:52;12.63;;;7.77;;
55134;SDS011;41031;44.750;11.308;2022-09-27T08:59:26;8.27;;;7.00;;
55134;SDS011;41031;44.750;11.308;2022-09-27T09:01:57;7.67;;;5.53;;
55134;SDS011;41031;44.750;11.308;2022-09-27T09:04:34;8.47;;;4.97;;
55134;SDS011;41031;44.750;11.308;2022-09-27T09:35:13;9.97;;;5.77;;
55134;SDS011;41031;44.750;11.308;2022-09-27T09:37:57;10.37;;;6.90;;
55134;SDS011;41031;44.750;11.308;2022-09-27T09:42:59;11.77;;;6.00;;
55134;SDS011;41031;44.750;11.308;2022-09-27T09:45:35;9.87;;;5.40;;
55134;SDS011;41031;44.750;11.308;2022-09-27T09:50:46;6.83;;;4.70;;
55134;SDS011;41031;44.750;11.308;2022-09-27T09:53:21;6.93;;;4.57;;
55134;SDS011;41031;44.750;11.308;2022-09-27T09:59:01;5.10;;;3.80;;
55134;SDS011;41031;44.750;11.308;2022-09-27T10:01:50;5.73;;;3.10;;
55134;SDS011;41031;44.750;11.308;2022-09-27T10:04:30;5.10;;;2.70;;
55134;SDS011;41031;44.750;11.308;2022-09-27T10:07:00;4.93;;;2.40;;
55134;SDS011;41031;44.750;11.308;2022-09-27T10:09:32;5.40;;;2.80;;
55134;SDS011;41031;44.750;11.308;2022-09-27T10:12:34;5.17;;;2.37;;
55134;SDS011;41031;44.750;11.308;2022-09-27T10:15:03;4.63;;;2.00;;
55134;SDS011;41031;44.750;11.308;2022-09-27T10:17:37;8.20;;;3.07;;
55134;SDS011;41031;44.750;11.308;2022-09-27T10:20:16;6.07;;;2.53;;
55134;SDS011;41031;44.750;11.308;2022-09-27T10:22:48;4.30;;;2.53;;
55134;SDS011;41031;44.750;11.308;2022-09-27T10:26:03;5.47;;;2.63;;
55134;SDS011;41031;44.750;11.308;2022-09-27T10:28:51;3.67;;;1.50;;
55134;SDS011;41031;44.750;11.308;2022-09-27T10:31:27;2.40;;;1.67;;
55134;SDS011;41031;44.750;11.308;2022-09-27T10:34:26;4.57;;;1.60;;
55134;SDS011;41031;44.750;11.308;2022-09-27T10:39:43;3.43;;;1.83;;
55134;SDS011;41031;44.750;11.308;2022-09-27T10:42:30;4.33;;;1.80;;
55134;SDS011;41031;44.750;11.308;2022-09-27T10:45:24;4.80;;;1.80;;
55134;SDS011;41031;44.750;11.308;2022-09-27T10:48:19;4.60;;;1.77;;
55134;SDS011;41031;44.750;11.308;2022-09-27T10:51:00;4.63;;;1.80;;
55134;SDS011;41031;44.750;11.308;2022-09-27T10:53:35;2.77;;;1.57;;
55134;SDS011;41031;44.750;11.308;2022-09-27T10:56:13;4.40;;;1.60;;
55134;SDS011;41031;44.750;11.308;2022-09-27T10:58:47;4.10;;;1.63;;
55134;SDS011;41031;44.750;11.308;2022-09-27T11:01:16;5.43;;;1.60;;
55134;SDS011;41031;44.750;11.308;2022-09-27T11:04:03;3.10;;;1.30;;
55134;SDS011;41031;44.750;11.308;2022-09-27T11:06:32;7.57;;;1.83;;
55134;SDS011;41031;44.750;11.308;2022-09-27T11:09:11;3.83;;;1.37;;
55134;SDS011;41031;44.750;11.308;2022-09-27T11:11:46;2.67;;;1.70;;
55134;SDS011;41031;44.750;11.308;2022-09-27T11:14:21;4.97;;;1.97;;
55134;SDS011;41031;44.750;11.308;2022-09-27T11:17:06;3.10;;;1.70;;
55134;SDS011;41031;44.750;11.308;2022-09-27T11:19:43;5.20;;;2.00;;
55134;SDS011;41031;44.750;11.308;2022-09-27T11:33:44;3.77;;;1.80;;
55134;SDS011;41031;44.750;11.308;2022-09-27T11:39:06;4.17;;;2.03;;
55134;SDS011;41031;44.750;11.308;2022-09-27T11:44:43;4.63;;;1.73;;
55134;SDS011;41031;44.750;11.308;2022-09-27T11:50:45;6.53;;;2.43;;
55134;SDS011;41031;44.750;11.308;2022-09-27T12:08:30;5.33;;;2.13;;
55134;SDS011;41031;44.750;11.308;2022-09-27T12:11:18;4.80;;;1.80;;
55134;SDS011;41031;44.750;11.308;2022-09-27T12:13:58;4.10;;;1.70;;
55134;SDS011;41031;44.750;11.308;2022-09-27T12:16:30;6.10;;;2.10;;
55134;SDS011;41031;44.750;11.308;2022-09-27T12:18:58;6.40;;;2.13;;
55134;SDS011;41031;44.750;11.308;2022-09-27T12:21:40;4.87;;;1.77;;
55134;SDS011;41031;44.750;11.308;2022-09-27T12:24:13;4.60;;;2.00;;
55134;SDS011;41031;44.750;11.308;2022-09-27T12:27:26;3.30;;;2.30;;
55134;SDS011;41031;44.750;11.308;2022-09-27T12:30:02;5.47;;;2.07;;
55134;SDS011;41031;44.750;11.308;2022-09-27T12:32:34;4.13;;;2.43;;
55134;SDS011;41031;44.750;11.308;2022-09-27T12:37:57;3.67;;;2.10;;
55134;SDS011;41031;44.750;11.308;2022-09-27T12:40:34;5.40;;;2.53;;
55134;SDS011;41031;44.750;11.308;2022-09-27T12:43:16;4.23;;;2.13;;
55134;SDS011;41031;44.750;11.308;2022-09-27T12:49:14;5.80;;;2.60;;
55134;SDS011;41031;44.750;11.308;2022-09-27T12:51:50;5.10;;;2.40;;
55134;SDS011;41031;44.750;11.308;2022-09-27T12:54:30;5.47;;;2.40;;
55134;SDS011;41031;44.750;11.308;2022-09-27T13:14:22;9.10;;;2.03;;
55134;SDS011;41031;44.750;11.308;2022-09-27T13:16:51;7.43;;;2.70;;
55134;SDS011;41031;44.750;11.308;2022-09-27T13:22:09;5.47;;;2.07;;
55134;SDS011;41031;44.750;11.308;2022-09-27T13:25:45;2.93;;;1.47;;
55134;SDS011;41031;44.750;11.308;2022-09-27T13:28:32;6.70;;;2.30;;
55134;SDS011;41031;44.750;11.308;2022-09-27T13:31:11;3.70;;;2.10;;
55134;SDS011;41031;44.750;11.308;2022-09-27T13:33:48;6.67;;;2.30;;
55134;SDS011;41031;44.750;11.308;2022-09-27T13:46:59;6.97;;;2.10;;
55134;SDS011;41031;44.750;11.308;2022-09-27T13:49:39;4.13;;;1.80;;
55134;SDS011;41031;44.750;11.308;2022-09-27T13:52:36;3.57;;;1.80;;
55134;SDS011;41031;44.750;11.308;2022-09-27T13:58:39;6.57;;;2.13;;
55134;SDS011;41031;44.750;11.308;2022-09-27T14:01:35;5.13;;;1.80;;
55134;SDS011;41031;44.750;11.308;2022-09-27T14:04:35;3.03;;;1.70;;
55134;SDS011;41031;44.750;11.308;2022-09-27T14:07:11;5.37;;;1.53;;
55134;SDS011;41031;44.750;11.308;2022-09-27T14:09:43;5.77;;;1.50;;
55134;SDS011;41031;44.750;11.308;2022-09-27T14:12:23;4.77;;;1.90;;
55134;SDS011;41031;44.750;11.308;2022-09-27T14:14:54;4.37;;;1.90;;
55134;SDS011;41031;44.750;11.308;2022-09-27T14:17:23;3.17;;;1.30;;
55134;SDS011;41031;44.750;11.308;2022-09-27T14:19:52;3.93;;;1.77;;
55134;SDS011;41031;44.750;11.308;2022-09-27T14:22:21;2.90;;;1.43;;
55134;SDS011;41031;44.750;11.308;2022-09-27T14:24:56;4.07;;;1.30;;
55134;SDS011;41031;44.750;11.308;2022-09-27T14:27:35;5.27;;;1.70;;
55134;SDS011;41031;44.750;11.308;2022-09-27T14:30:29;5.03;;;1.90;;
55134;SDS011;41031;44.750;11.308;2022-09-27T14:33:30;4.10;;;1.20;;
55134;SDS011;41031;44.750;11.308;2022-09-27T14:36:06;6.27;;;1.90;;
55134;SDS011;41031;44.750;11.308;2022-09-27T14:39:11;6.73;;;1.47;;
55134;SDS011;41031;44.750;11.308;2022-09-27T14:41:58;7.43;;;1.57;;
55134;SDS011;41031;44.750;11.308;2022-09-27T14:44:26;4.13;;;1.83;;
55134;SDS011;41031;44.750;11.308;2022-09-27T14:47:14;6.67;;;1.20;;
55134;SDS011;41031;44.750;11.308;2022-09-27T14:52:22;4.73;;;1.90;;
55134;SDS011;41031;44.750;11.308;2022-09-27T14:54:59;4.17;;;1.83;;
55134;SDS011;41031;44.750;11.308;2022-09-27T14:57:44;6.60;;;1.60;;
55134;SDS011;41031;44.750;11.308;2022-09-27T15:00:23;5.37;;;1.30;;
55134;SDS011;41031;44.750;11.308;2022-09-27T15:02:58;3.83;;;1.80;;
55134;SDS011;41031;44.750;11.308;2022-09-27T15:05:32;5.50;;;2.10;;
55134;SDS011;41031;44.750;11.308;2022-09-27T15:08:04;5.67;;;2.10;;
55134;SDS011;41031;44.750;11.308;2022-09-27T15:10:35;4.20;;;1.83;;
55134;SDS011;41031;44.750;11.308;2022-09-27T15:13:04;6.43;;;1.77;;
55134;SDS011;41031;44.750;11.308;2022-09-27T15:15:33;5.47;;;1.57;;
55134;SDS011;41031;44.750;11.308;2022-09-27T15:18:02;4.73;;;2.00;;
55134;SDS011;41031;44.750;11.308;2022-09-27T15:20:30;8.27;;;2.23;;
55134;SDS011;41031;44.750;11.308;2022-09-27T15:23:01;6.80;;;2.27;;
55134;SDS011;41031;44.750;11.308;2022-09-27T15:28:06;5.97;;;1.73;;
55134;SDS011;41031;44.750;11.308;2022-09-27T15:30:46;2.63;;;1.20;;
55134;SDS011;41031;44.750;11.308;2022-09-27T15:33:21;5.50;;;2.10;;
55134;SDS011;41031;44.750;11.308;2022-09-27T15:35:54;4.63;;;1.80;;
55134;SDS011;41031;44.750;11.308;2022-09-27T15:43:29;4.20;;;2.27;;
55134;SDS011;41031;44.750;11.308;2022-09-27T15:45:57;5.77;;;1.47;;
55134;SDS011;41031;44.750;11.308;2022-09-27T15:48:37;6.50;;;1.50;;
55134;SDS011;41031;44.750;11.308;2022-09-27T15:51:10;4.70;;;1.50;;
55134;SDS011;41031;44.750;11.308;2022-09-27T15:54:04;8.43;;;1.93;;
55134;SDS011;41031;44.750;11.308;2022-09-27T15:56:30;5.87;;;1.43;;
55134;SDS011;41031;44.750;11.308;2022-09-27T15:59:00;3.53;;;1.47;;
55134;SDS011;41031;44.750;11.308;2022-09-27T16:01:28;4.67;;;1.60;;
55134;SDS011;41031;44.750;11.308;2022-09-27T16:03:57;3.13;;;1.13;;
55134;SDS011;41031;44.750;11.308;2022-09-27T16:06:27;5.93;;;1.53;;
55134;SDS011;41031;44.750;11.308;2022-09-27T16:08:54;5.97;;;2.13;;
55134;SDS011;41031;44.750;11.308;2022-09-27T16:11:21;5.10;;;1.47;;
55134;SDS011;41031;44.750;11.308;2022-09-27T16:13:48;6.67;;;1.90;;
55134;SDS011;41031;44.750;11.308;2022-09-27T16:16:18;5.27;;;1.93;;
55134;SDS011;41031;44.750;11.308;2022-09-27T16:18:47;4.60;;;1.50;;
55134;SDS011;41031;44.750;11.308;2022-09-27T16:21:14;4.87;;;1.50;;
55134;SDS011;41031;44.750;11.308;2022-09-27T16:23:41;4.30;;;1.43;;
55134;SDS011;41031;44.750;11.308;2022-09-27T16:26:08;8.17;;;1.47;;
55134;SDS011;41031;44.750;11.308;2022-09-27T16:28:35;3.37;;;1.50;;
55134;SDS011;41031;44.750;11.308;2022-09-27T16:31:03;3.23;;;1.60;;
55134;SDS011;41031;44.750;11.308;2022-09-27T16:33:32;2.87;;;1.30;;
55134;SDS011;41031;44.750;11.308;2022-09-27T16:36:03;7.43;;;2.03;;
55134;SDS011;41031;44.750;11.308;2022-09-27T16:38:32;5.93;;;1.70;;
55134;SDS011;41031;44.750;11.308;2022-09-27T16:40:59;11.43;;;1.90;;
55134;SDS011;41031;44.750;11.308;2022-09-27T16:43:28;1.63;;;1.23;;
55134;SDS011;41031;44.750;11.308;2022-09-27T16:46:04;7.03;;;1.40;;
55134;SDS011;41031;44.750;11.308;2022-09-27T16:48:34;6.77;;;1.87;;
55134;SDS011;41031;44.750;11.308;2022-09-27T16:51:19;7.77;;;1.50;;
55134;SDS011;41031;44.750;11.308;2022-09-27T16:54:05;6.67;;;2.00;;
55134;SDS011;41031;44.750;11.308;2022-09-27T16:56:33;3.17;;;1.10;;
55134;SDS011;41031;44.750;11.308;2022-09-27T16:59:02;6.37;;;1.63;;
55134;SDS011;41031;44.750;11.308;2022-09-27T17:01:31;3.17;;;0.97;;
55134;SDS011;41031;44.750;11.308;2022-09-27T17:03:59;2.67;;;1.30;;
55134;SDS011;41031;44.750;11.308;2022-09-27T17:06:27;8.17;;;2.67;;
55134;SDS011;41031;44.750;11.308;2022-09-27T17:08:53;10.43;;;3.10;;
55134;SDS011;41031;44.750;11.308;2022-09-27T17:11:21;8.67;;;2.00;;
55134;SDS011;41031;44.750;11.308;2022-09-27T17:13:52;12.07;;;1.83;;
55134;SDS011;41031;44.750;11.308;2022-09-27T17:16:20;7.20;;;1.93;;
55134;SDS011;41031;44.750;11.308;2022-09-27T17:18:47;9.17;;;2.13;;
55134;SDS011;41031;44.750;11.308;2022-09-27T17:21:14;7.93;;;1.30;;
55134;SDS011;41031;44.750;11.308;2022-09-27T17:23:42;3.83;;;1.43;;
55134;SDS011;41031;44.750;11.308;2022-09-27T17:28:46;7.33;;;1.67;;
55134;SDS011;41031;44.750;11.308;2022-09-27T17:31:14;5.63;;;1.80;;
55134;SDS011;41031;44.750;11.308;2022-09-27T17:33:44;7.30;;;1.70;;
55134;SDS011;41031;44.750;11.308;2022-09-27T17:36:14;6.47;;;1.40;;
55134;SDS011;41031;44.750;11.308;2022-09-27T17:38:43;4.90;;;1.77;;
55134;SDS011;41031;44.750;11.308;2022-09-27T17:41:12;3.60;;;1.60;;
55134;SDS011;41031;44.750;11.308;2022-09-27T17:43:41;4.83;;;1.27;;
55134;SDS011;41031;44.750;11.308;2022-09-27T17:46:19;4.60;;;1.37;;
55134;SDS011;41031;44.750;11.308;2022-09-27T17:48:48;4.77;;;1.90;;
55134;SDS011;41031;44.750;11.308;2022-09-27T17:51:35;6.73;;;2.00;;
55134;SDS011;41031;44.750;11.308;2022-09-27T17:54:04;5.07;;;1.33;;
55134;SDS011;41031;44.750;11.308;2022-09-27T17:56:36;5.27;;;1.13;;
55134;SDS011;41031;44.750;11.308;2022-09-27T17:59:04;3.47;;;1.30;;
55134;SDS011;41031;44.750;11.308;2022-09-27T18:01:32;3.17;;;1.10;;
55134;SDS011;41031;44.750;11.308;2022-09-27T18:03:59;6.93;;;1.50;;
55134;SDS011;41031;44.750;11.308;2022-09-27T18:06:27;3.80;;;0.93;;
55134;SDS011;41031;44.750;11.308;2022-09-27T18:08:55;5.33;;;1.00;;
55134;SDS011;41031;44.750;11.308;2022-09-27T18:11:23;4.80;;;1.47;;